Estación de Las Puertas

Ultimos registro cada 15 minutos 29
Estación Fecha / Hora Temperatura Humedad Lluvia Velocidad Dirección Radiación Presion
29 Las Puertas 07-05-2026 07:00 11,1 88 0 0 270 0 1022,8
28 Las Puertas 07-05-2026 06:45 11,2 88 0 0 270 0 1022,9
27 Las Puertas 07-05-2026 06:30 11,3 87 0 0 270 0 1022,8
26 Las Puertas 07-05-2026 06:15 11,6 88 0 0 223 0 1022,7
25 Las Puertas 07-05-2026 06:00 11,7 87 0 0 261 0 1022,8
24 Las Puertas 07-05-2026 05:45 11,8 87 0 0 272 0 1022,6
23 Las Puertas 07-05-2026 05:30 11,7 87 0 0 340 0 1022,3
22 Las Puertas 07-05-2026 05:15 11,8 87 0 0 340 0 1022,1
21 Las Puertas 07-05-2026 05:00 11,9 86 0 0 260 0 1022
20 Las Puertas 07-05-2026 04:45 12,2 85 0 0 260 0 1021,9
19 Las Puertas 07-05-2026 04:30 12,3 85 0 0 260 0 1021,8
18 Las Puertas 07-05-2026 04:15 12,3 84 0 0 350 0 1021,9
17 Las Puertas 07-05-2026 04:00 12,3 84 0 0 298 0 1022
16 Las Puertas 07-05-2026 03:45 12,3 84 0 0 275 0 1022,1
15 Las Puertas 07-05-2026 03:30 12,4 84 0 0,4 300 0 1021,9
14 Las Puertas 07-05-2026 03:15 12,4 84 0 0 267 0 1021,9
13 Las Puertas 07-05-2026 03:00 12,4 84 0 0 331 0 1021,8
12 Las Puertas 07-05-2026 02:45 12,5 84 0 0 336 0 1021,7
11 Las Puertas 07-05-2026 02:30 12,7 84 0 0,4 3 0 1021,7
10 Las Puertas 07-05-2026 02:15 12,8 84 0 0,9 11 0 1021,6
9 Las Puertas 07-05-2026 02:00 12,9 84 0 0,4 13 0 1021,4
8 Las Puertas 07-05-2026 01:45 13 84 0 0 298 0 1021,1
7 Las Puertas 07-05-2026 01:30 13,1 84 0 0 346 0 1021
6 Las Puertas 07-05-2026 01:15 13,2 85 0 0,4 320 0 1021
5 Las Puertas 07-05-2026 01:00 13,3 85 0 1,3 332 0 1020,9
4 Las Puertas 07-05-2026 00:45 13,4 86 0 0,4 334 0 1021,1
3 Las Puertas 07-05-2026 00:30 13,4 86 0 0 311 0 1021,1
2 Las Puertas 07-05-2026 00:15 13,4 87 0 0 328 0 1021
1 Las Puertas 07-05-2026 00:00 13,4 87 0 0 323 0 1021